• Join FlightAware (Why Join?)
  • Login
  • US Flag 
07:54AM EDT


 

Airport Tracker/Info


-or-


 

Live Flight TrackerFlight Track Log ✈ DAL1941 ✈ 10-Oct-2013 ✈ KMHT - KATL

Flight Track Log - Related Links

Times and Time Zones

All times are in EDT time to prevent confusion due to time zone crossing. See the DAL1941 flight status page for this flight to view local times or setup timezone preferences in your user account.

Time Position Orientation Groundspeed Altitude Reporting Facility
EDT Latitude Longitude Course Direction KTS MPH feet Rate Location/Type
07:38AM 42.9500 -71.4167 106° East 162 186 1,300  Level KA90
07:38AM 42.9833 -71.4000 20° North 213 245 2,500 2,220 Climbing KA90
07:41AM 42.6430 -71.9355 200° South  Level Estimated
07:41AM 43.0714 -71.2322 54° Northeast 225 259 8,600  Level Boston Center
07:42AM 42.5702 -72.0597 257° West  Level Estimated
07:42AM 43.0619 -71.1272 97° East 260 299 10,700  Level Boston Center
07:43AM 42.5381 -71.9071 106° East  Level FlightAware Approximate
07:43AM 43.0792 -71.0017 79° East 311 358 11,900  Level Boston Center
07:44AM 43.0069 -70.9097 137° Southeast 299 344 13,500 2,100 Climbing Boston Center
07:45AM 42.8928 -70.9353 189° South 330 380 16,200 2,100 Climbing Boston Center
07:46AM 42.7828 -70.9833 198° South 370 426 17,800 1,680 Climbing Boston Center
07:47AM 42.6731 -71.0367 200° South 415 478 19,600 1,680 Climbing Boston Center
07:48AM 42.5550 -71.0956 200° South 431 496 21,300 1,620 Climbing Boston Center
07:49AM 42.4772 -71.2128 228° Southwest 419 482 23,000 1,560 Climbing Boston Center
07:50AM 42.4456 -71.3794 256° West 421 484 24,400 1,680 Climbing Boston Center
07:51AM 42.4136 -71.5458 255° West 436 502 26,400 1,680 Climbing Boston Center
07:52AM 42.3750 -71.7039 252° West 447 514 27,900 1,380 Climbing Boston Center
07:53AM 42.3428 -71.8642 255° West 447 514 29,200 1,260 Climbing Boston Center
07:54AM 42.3081 -72.0247 254° West 447 514 30,400 1,260 Climbing Boston Center
07:55AM 42.2500 -72.1681 241° Southwest 428 493 31,800 1,080 Climbing Boston Center
07:56AM 42.1836 -72.2972 235° Southwest 428 493 32,700 780 Climbing Boston Center
07:57AM 42.1192 -72.4317 237° Southwest 428 493 33,400 600 Climbing Boston Center
07:58AM 42.0544 -72.5631 236° Southwest 428 493 34,000 240 Climbing Boston Center
07:59AM 41.9917 -72.6886 236° Southwest 423 487 34,000  Level Boston Center
08:00AM 41.9225 -72.8222 235° Southwest 428 493 34,000  Level Boston Center
08:01AM 41.8533 -72.9531 235° Southwest 428 493 34,000  Level Boston Center
08:02AM 41.7817 -73.0861 234° Southwest 436 502 34,000  Level Boston Center
08:03AM 41.7119 -73.2158 234° Southwest 441 507 34,000  Level Boston Center
08:05AM 41.5833 -73.4364 232° Southwest 426 490 34,000  Level New York Center
08:06AM 41.5058 -73.5525 228° Southwest 426 490 34,000  Level New York Center
08:07AM 41.4281 -73.6708 229° Southwest 426 490 34,000  Level New York Center
08:08AM 41.3500 -73.7919 229° Southwest 432 497 34,000  Level New York Center
08:09AM 41.2697 -73.9125 228° Southwest 432 497 34,000  Level New York Center
08:10AM 41.1894 -74.0300 228° Southwest 432 497 34,000  Level New York Center
08:11AM 41.1111 -74.1500 229° Southwest 432 497 34,000  Level New York Center
08:12AM 41.0306 -74.2753 230° Southwest 444 511 34,000  Level New York Center
08:13AM 40.9539 -74.4006 231° Southwest 444 511 34,000  Level New York Center
08:14AM 40.8769 -74.5225 230° Southwest 444 511 34,000  Level New York Center
08:15AM 40.8022 -74.6444 231° Southwest 439 505 34,000  Level New York Center
08:16AM 40.7253 -74.7661 230° Southwest 439 505 34,000  Level New York Center
08:17AM 40.6500 -74.8931 232° Southwest 439 505 34,000  Level New York Center
08:18AM 40.5786 -75.0281 235° Southwest 445 512 34,000  Level New York Center
08:19AM 40.5069 -75.1628 235° Southwest 451 519 34,000  Level New York Center
08:20AM 40.4375 -75.2947 235° Southwest 451 519 34,000  Level New York Center
08:21AM 40.3703 -75.4131 233° Southwest 451 519 34,000  Level New York Center
08:22AM 40.3003 -75.5444 235° Southwest 456 525 34,000  Level New York Center
08:23AM 40.2283 -75.6753 234° Southwest 456 525 34,000  Level New York Center
08:24AM 40.1561 -75.8061 234° Southwest 456 525 34,000  Level New York Center
08:25AM 40.0858 -75.9339 234° Southwest 451 519 34,000  Level New York Center
08:26AM 40.0136 -76.0614 234° Southwest 451 519 34,000  Level New York Center
08:27AM 39.9431 -76.1889 234° Southwest 444 511 34,000  Level New York Center
08:28AM 39.8683 -76.3183 233° Southwest 444 511 34,000  Level New York Center
08:29AM 39.7978 -76.4453 234° Southwest 444 511 34,000  Level New York Center
08:29AM 39.7453 -76.5361 233° Southwest 443 510 34,000  Level Washington Center
08:30AM 39.6819 -76.6458 233° Southwest 438 504 34,000  Level Washington Center
08:31AM 39.6100 -76.7714 233° Southwest 438 504 34,000  Level Washington Center
08:32AM 39.5400 -76.8967 234° Southwest 438 504 34,000  Level Washington Center
08:33AM 39.4614 -77.0136 229° Southwest 433 498 34,000  Level Washington Center
08:34AM 39.3686 -77.1111 219° Southwest 427 491 34,000  Level Washington Center
08:35AM 39.2756 -77.2056 218° Southwest 432 497 34,000  Level Washington Center
08:36AM 39.1828 -77.3000 218° Southwest 437 503 34,000  Level Washington Center
08:37AM 39.0978 -77.4103 225° Southwest 431 496 34,000  Level Washington Center
08:38AM 39.0189 -77.5233 228° Southwest 431 496 34,000  Level Washington Center
08:39AM 38.9292 -77.6542 229° Southwest 444 511 34,000  Level Washington Center
08:40AM 38.8583 -77.7589 229° Southwest 444 511 34,000  Level Washington Center
08:41AM 38.7683 -77.8922 229° Southwest 450 518 34,000  Level Washington Center
08:42AM 38.6889 -78.0067 228° Southwest 445 512 34,000  Level Washington Center
08:43AM 38.6075 -78.1208 228° Southwest 445 512 34,000  Level Washington Center
08:44AM 38.5278 -78.2350 228° Southwest 445 512 34,000  Level Washington Center
08:45AM 38.4461 -78.3514 228° Southwest 445 512 34,000  Level Washington Center
08:46AM 38.3642 -78.4647 227° Southwest 440 506 34,000  Level Washington Center
08:47AM 38.2864 -78.5783 229° Southwest 440 506 34,000  Level Washington Center
08:48AM 38.2061 -78.6939 229° Southwest 435 501 34,000  Level Washington Center
08:49AM 38.1239 -78.8067 227° Southwest 435 501 34,000  Level Washington Center
08:50AM 38.0394 -78.9244 228° Southwest 440 506 34,000  Level Washington Center
08:51AM 37.9656 -79.0264 227° Southwest 445 512 34,000  Level Washington Center
08:52AM 37.8811 -79.1383 226° Southwest 445 512 34,000  Level Washington Center
08:53AM 37.7983 -79.2528 228° Southwest 445 512 34,000  Level Washington Center
08:54AM 37.7025 -79.3794 226° Southwest 451 519 34,000  Level Washington Center
08:55AM 37.6283 -79.4858 229° Southwest 456 525 34,000  Level Washington Center
08:56AM 37.5367 -79.6094 227° Southwest 451 519 34,000  Level Washington Center
08:57AM 37.4600 -79.7128 227° Southwest 451 519 34,000  Level Washington Center
08:58AM 37.3722 -79.8361 228° Southwest 457 526 34,000  Level Washington Center
08:59AM 37.2800 -79.9639 228° Southwest 457 526 34,000  Level Washington Center
09:01AM 37.1094 -80.1947 227° Southwest 431 496 34,000  Level Atlanta Center
09:02AM 37.0336 -80.2972 227° Southwest 437 503 34,000  Level Atlanta Center
09:03AM 36.9494 -80.4103 227° Southwest 442 509 34,000  Level Atlanta Center
09:04AM 36.8631 -80.5233 226° Southwest 442 509 34,000  Level Atlanta Center
09:05AM 36.7767 -80.6386 227° Southwest 447 514 34,000  Level Atlanta Center
09:06AM 36.6861 -80.7589 227° Southwest 441 507 34,000  Level Atlanta Center
09:07AM 36.6033 -80.8708 227° Southwest 441 507 34,000  Level Atlanta Center
09:08AM 36.5167 -80.9828 226° Southwest 441 507 34,000  Level Atlanta Center
09:09AM 36.4339 -81.0944 227° Southwest 441 507 34,000  Level Atlanta Center
09:10AM 36.3467 -81.2058 226° Southwest 441 507 34,000  Level Atlanta Center
09:11AM 36.2639 -81.3169 227° Southwest 441 507 34,000  Level Atlanta Center
09:12AM 36.1786 -81.4331 228° Southwest 441 507 34,000  Level Atlanta Center
09:13AM 36.0933 -81.5411 226° Southwest 446 513 34,000  Level Atlanta Center
09:14AM 36.0161 -81.6436 227° Southwest 446 513 34,000  Level Atlanta Center
09:15AM 35.9286 -81.7564 226° Southwest 452 520 34,000  Level Atlanta Center
09:16AM 35.8408 -81.8692 226° Southwest 452 520 34,000  Level Atlanta Center
09:17AM 35.7553 -81.9789 226° Southwest 452 520 34,000  Level Atlanta Center
09:18AM 35.6672 -82.0908 226° Southwest 457 526 34,000  Level Atlanta Center
09:19AM 35.5772 -82.2003 225° Southwest 457 526 34,000  Level Atlanta Center
09:20AM 35.4933 -82.3094 227° Southwest 452 520 34,000  Level Atlanta Center
09:21AM 35.4050 -82.4233 226° Southwest 457 526 34,000 -180 Level Atlanta Center
09:22AM 35.3147 -82.5294 224° Southwest 457 526 33,700 -720 Descending Atlanta Center
09:23AM 35.2219 -82.6353 223° Southwest 457 526 32,600 -900 Descending Atlanta Center
09:24AM 35.1250 -82.7386 221° Southwest 457 526 31,900 -780 Descending Atlanta Center
09:25AM 35.0178 -82.8519 221° Southwest 470 541 31,100 -660 Descending Atlanta Center
09:26AM 34.9433 -82.9339 222° Southwest 470 541 30,600 -600 Descending Atlanta Center
09:27AM 34.8336 -83.0442 220° Southwest 470 541 29,900 -780 Descending Atlanta Center
09:28AM 34.7406 -83.1414 221° Southwest 453 521 29,100 -1,380 Descending Atlanta Center
09:29AM 34.6494 -83.2433 223° Southwest 453 521 27,200 -2,040 Descending Atlanta Center
09:30AM 34.5625 -83.3400 222° Southwest 434 499 25,100 -2,280 Descending Atlanta Center
09:31AM 34.4753 -83.4317 221° Southwest 425 489 22,700 -1,860 Descending Atlanta Center
09:32AM 34.3900 -83.5178 220° Southwest 407 468 21,400 -1,740 Descending Atlanta Center
09:33AM 34.3047 -83.6114 222° Southwest 391 450 19,300 -2,100 Descending Atlanta Center
09:34AM 34.2319 -83.6869 221° Southwest 368 423 17,200 -2,100 Descending Atlanta Center
09:35AM 34.1592 -83.7653 222° Southwest 361 415 15,100 -1,620 Descending Atlanta Center
09:36AM 34.0883 -83.8406 221° Southwest 354 407 14,000 -960 Descending Atlanta Center
09:37AM 34.0500 -83.8833 223° Southwest 336 387 13,700 -900 Descending Atlanta TRACON
09:38AM 33.9833 -83.9500 220° Southwest 325 374 12,700 -840 Descending Atlanta TRACON
09:39AM 33.9167 -84.0167 220° Southwest 304 350 12,100 -360 Descending Atlanta TRACON
09:40AM 33.8333 -84.0667 206° Southwest 303 349 12,000 -60 Descending Atlanta TRACON
09:41AM 33.7500 -84.1167 207° Southwest 307 353 12,000  Level Atlanta TRACON
09:42AM 33.7333 -84.2167 259° West 296 341 12,000 -300 Level Atlanta TRACON
09:43AM 33.7333 -84.3000 270° West 251 289 11,400 -1,020 Descending Atlanta TRACON
09:44AM 33.7333 -84.3833 270° West 253 291 10,000 -1,380 Descending Atlanta TRACON
09:45AM 33.7333 -84.4667 270° West 241 277 8,700 -1,260 Descending Atlanta TRACON
09:46AM 33.7333 -84.5500 270° West 219 252 7,500 -1,320 Descending Atlanta TRACON
09:47AM 33.7333 -84.6167 270° West 217 250 6,100 -1,200 Descending Atlanta TRACON
09:48AM 33.7167 -84.6667 248° West 221 254 5,200 -1,020 Descending Atlanta TRACON
09:49AM 33.6667 -84.6500 164° South 199 229 4,200 -960 Descending Atlanta TRACON
09:50AM 33.6500 -84.6000 112° Southeast 189 217 3,400 -840 Descending Atlanta TRACON
09:51AM 33.6500 -84.5333 90° East 187 215 2,600 -900 Descending Atlanta TRACON
09:52AM 33.6500 -84.4667 90° East 162 186 1,600 -960 Descending Atlanta TRACON